Aeroporto :
LOGIN :

Iscrizione | Disclaimer

   EN    FR    IT 

 










Sommario :    VFR   VFR Marginale   IFR   IFR Intensivo   IFR Molto Intensivo
Visibilità : 
Base nubi : 
>= 8 km
>= 3000ft
5 / 8 km
1000 / 3000 ft
1500m / 5 km
500 / 1000 ft
800 / 1500m
200 / 500 ft
< 800m
< 200 ft
Simboli :   Temporali  Nebbia  Neve Forte  Precipitazioni Forti  Vento > 20 kt
SIGMETs :   Varie  Temporali  Ghiacco  Turbolenza  Onda orograficha  Ceneri Vulcaniche






- Altitudine del aeroporto : 1300 ft
- Codice IATA : LIG


LFBL - Limoges

ULTIMO METAR :
  • 090630Z AUTO 25004KT 210V280 1100 R21/1700U R03/2000U BCFG VV/// 01/01 Q1011 TEMPO 0500 FG

METARs OBSOLETI :
  • 090600Z AUTO 26004KT 220V300 0500 0450 R21/0700N R03/0600N FG VV/// 01/00 Q1011 NOSIG
  • 090530Z AUTO 26007KT 220V300 1000 0700 R21/1500D R03/1500D BCFG VV/// 01/00 Q1011 TEMPO 0500 FG
  • 090500Z AUTO 27003KT 230V290 9999 VV/// 00/00 Q1011 TEMPO 0500 FG
  • 090430Z AUTO 25004KT 220V290 9999 OVC003 00/00 Q1011 TEMPO 0500 FG VV///
  • 090400Z AUTO 26003KT 230V300 9999 OVC002 01/00 Q1011 TEMPO 0500 FG VV///

TAF TAF LFBL
Valido dal 09 a 06 ore il 10 a 06 ore UTC


090500Z 0906/1006 24006KT 9999 OVC002
TEMPO 0906/0910 2000 BR
PROB40
TEMPO 0906/0909 0500 FG VV///
BECMG 0909/0911 BKN007
BECMG 0917/0919 18010KT 4000 -RA OVC005
TEMPO 0922/0924 2000 RA OVC003
BECMG 1000/1002 28018G35KT 9999 NSW SCT013 BKN050
TEMPO 1003/1006 4000 -SHRA BKN012TCU
ATIS : +33 5 55 48 40 37



MetMap, La meteo Aeronautica in un colpo d'occhio ! - Copyright ORBIFLY Dicembre 2007 - Disclaimer

ORBIFLY MET'MAP TEAM :

Programmazione e sviluppo : Alexandra Zaïnal
Concezione : Baudouin d'Aumeries
Aiuto per la programmazione : Marc-Olivier Méhu
Supporto tecnico e logistico : Manuel Goepfert
Aiuto per la traduzione : Arnaldo La Scala

Contatto : metmap@orbifly.com




FONTI E CREDITI :

   NOAA